Karin S — V2BM6 — position and weather

sailwx.info

Track history (hours):
 
Tides and Currents Weather Stations Pressure Air Temp Water Temp Dewpoint Dewpoint Depression Visibility Wind Speed Wind Dir Waves Ship Positions

Karin S

Last reported at 2017-Jun-25 02:00 UTC. Time now 2017-Jun-25 02:02 UTC.
Position N 36°57' W 000°13'.

Length 141 m; draft 8.6 m.

Type: Cargo ship. MMSI: 304871000.

Date/timePositionNaut miles runAvg speedWind from/ knotsBaromVisibWave heightAir tempDewpointWater temp
2017-Jun-25 02:00N 36°57' W 000°13'5 8.5
2017-Jun-25 01:28N 37°01' W 000°12'4 8.6
2017-Jun-25 01:00N 37°05' W 000°11'4 8.8
2017-Jun-25 00:30N 37°10' W 000°10'5 9.1
2017-Jun-25 00:00N 37°14' W 000°08'5 9.0
2017-Jun-24 23:30N 37°18' W 000°07'4 9.2
2017-Jun-24 23:00N 37°23' W 000°06'5 9.0
2017-Jun-24 22:28N 37°28' W 000°04'4 9.0
2017-Jun-24 22:00N 37°32' W 000°03'5 9.1
2017-Jun-24 21:30N 37°36' W 000°02'4 8.9
2017-Jun-24 21:00N 37°40' W 000°01'4 8.8
2017-Jun-24 20:30N 37°45' E 000°01'4 8.5
2017-Jun-24 19:59N 37°49' E 000°02'5 8.7
2017-Jun-24 19:27N 37°54' E 000°03'4 8.6
2017-Jun-24 18:59N 37°57' E 000°04'4 8.6
2017-Jun-24 18:30N 38°01' E 000°05'4 8.5
2017-Jun-24 18:00N 38°06' E 000°06'4 8.6
2017-Jun-24 17:30N 38°10' E 000°07'4 8.6
2017-Jun-24 17:00N 38°14' E 000°09'4 8.5
2017-Jun-24 16:30N 38°18' E 000°10'4 8.6
2017-Jun-24 16:00N 38°22' E 000°11'5 8.6
2017-Jun-24 15:29N 38°27' E 000°12'4 8.3
2017-Jun-24 14:59N 38°31' E 000°13'8 8.0
2017-Jun-24 14:00N 38°37' E 000°19'4 7.8
2017-Jun-24 13:30N 38°41' E 000°21'4 7.7
2017-Jun-24 13:00N 38°44' E 000°24'3 6.6
2017-Jun-24 12:30N 38°47' E 000°23'52 1.2
2017-Jun-22 16:22N 39°39' E 000°31'411.3
2017-Jun-22 15:59N 39°40' E 000°36'511.4
2017-Jun-22 15:30N 39°42' E 000°42'611.2
2017-Jun-22 15:00N 39°44' E 000°49'1110.8
2017-Jun-22 13:59N 39°52' E 000°60'611.5
2017-Jun-22 13:29N 39°57' E 001°04'511.4
2017-Jun-22 13:00N 40°01' E 001°07'611.3
2017-Jun-22 12:30N 40°06' E 001°11'611.2
2017-Jun-22 12:00N 40°11' E 001°15'611.3
2017-Jun-22 11:30N 40°16' E 001°19'611.7
2017-Jun-22 11:00N 40°20' E 001°23'611.9
2017-Jun-22 10:30N 40°26' E 001°28'712.1
2017-Jun-22 09:57N 40°31' E 001°32'612.2
2017-Jun-22 09:29N 40°36' E 001°36'612.3
2017-Jun-22 08:58N 40°41' E 001°41'612.2
2017-Jun-22 08:30N 40°46' E 001°44'612.4
2017-Jun-22 08:00N 40°52' E 001°48'612.3
2017-Jun-22 07:30N 40°57' E 001°53'612.1
2017-Jun-22 07:00N 41°02' E 001°58'612.3
2017-Jun-22 06:30N 41°07' E 002°02'612.0
2017-Jun-22 06:00N 41°12' E 002°06'611.6
2017-Jun-22 05:30N 41°17' E 002°11'2 4.4
2017-Jun-22 05:00N 41°19' E 002°09'0 0.2
2017-Jun-22 04:30N 41°19' E 002°09'0 0.1
2017-Jun-22 04:00N 41°19' E 002°09'0 0.0
2017-Jun-22 03:30N 41°19' E 002°09'0 0.0
2017-Jun-22 02:58N 41°19' E 002°09'0 0.1
2017-Jun-22 02:30N 41°19' E 002°09'0 0.1
2017-Jun-22 02:00N 41°19' E 002°09'0 0.0
2017-Jun-22 01:28N 41°19' E 002°09'0 0.0
2017-Jun-22 01:00N 41°19' E 002°09'0 0.0
2017-Jun-22 00:30N 41°19' E 002°09'0 0.0
2017-Jun-21 23:49N 41°19' E 002°09'0 0.0
2017-Jun-21 23:31N 41°19' E 002°09'0 0.0
2017-Jun-21 22:57N 41°19' E 002°09'0 0.0
2017-Jun-21 22:13N 41°19' E 002°09'0 0.0
2017-Jun-21 21:45N 41°19' E 002°09'0 0.0
2017-Jun-21 21:25N 41°19' E 002°09'0 0.0
2017-Jun-21 20:43N 41°19' E 002°09'0 0.0
2017-Jun-21 20:25N 41°19' E 002°09'0 0.0
2017-Jun-21 19:49N 41°19' E 002°09'0 0.0
2017-Jun-21 19:16N 41°19' E 002°09'0 0.0
2017-Jun-21 19:00N 41°19' E 002°09'0 0.0
2017-Jun-21 18:31N 41°19' E 002°09'0 0.2
2017-Jun-21 18:00N 41°19' E 002°09'0 0.2
2017-Jun-21 17:30N 41°19' E 002°09'0 0.0
2017-Jun-21 17:00N 41°19' E 002°09'0 0.1
2017-Jun-21 16:21N 41°19' E 002°09'0 0.1
2017-Jun-21 15:59N 41°19' E 002°09'0 0.0
2017-Jun-21 14:14N 41°19' E 002°09'0 0.5
2017-Jun-21 13:30N 41°19' E 002°09'2 3.1
2017-Jun-21 13:00N 41°18' E 002°11'2 3.3
2017-Jun-21 12:18N 41°21' E 002°11'0 0.1
2017-Jun-21 12:00N 41°21' E 002°11'0 0.0
2017-Jun-21 11:30N 41°21' E 002°11'0 0.0
2017-Jun-21 10:54N 41°21' E 002°11'0 0.0
2017-Jun-21 10:24N 41°21' E 002°11'0 0.0
2017-Jun-21 07:42N 41°21' E 002°11'0 0.0
2017-Jun-21 05:48N 41°21' E 002°11'0 0.0
2017-Jun-21 02:42N 41°21' E 002°11'0 0.0
2017-Jun-21 02:30N 41°21' E 002°11'0 0.0
2017-Jun-21 02:00N 41°21' E 002°12'0 0.0
2017-Jun-21 00:30N 41°21' E 002°12'0 0.0
2017-Jun-20 20:12N 41°21' E 002°11'0 0.0
2017-Jun-20 19:48N 41°21' E 002°12'0 0.0
2017-Jun-20 19:30N 41°21' E 002°12'0 0.0
2017-Jun-20 18:54N 41°21' E 002°11'0 0.0
2017-Jun-20 18:06N 41°21' E 002°12'0 0.0
2017-Jun-20 17:36N 41°21' E 002°11'0 0.0
2017-Jun-20 17:30N 41°21' E 002°11'0 0.0
2017-Jun-20 16:54N 41°21' E 002°11'0 0.0
2017-Jun-20 16:27N 41°21' E 002°11'0 0.0
2017-Jun-20 15:42N 41°21' E 002°11'0 0.0
2017-Jun-20 15:27N 41°21' E 002°11'0 0.0
2017-Jun-20 11:30N 41°21' E 002°11'0 0.0
2017-Jun-20 03:27N 41°20' E 002°11'0 0.1
2017-Jun-20 02:45N 41°20' E 002°11'0 0.1
2017-Jun-20 02:21N 41°20' E 002°11'0 0.2
2017-Jun-20 01:58N 41°20' E 002°11'1 2.2
2017-Jun-20 01:30N 41°20' E 002°12'4 8.2
2017-Jun-20 01:00N 41°16' E 002°11'8 9.7
2017-Jun-20 00:09N 41°09' E 002°05'9 9.6
2017-Jun-19 23:15N 41°02' E 001°58'2 9.8
2017-Jun-19 23:00N 40°60' E 001°56'5 9.7
2017-Jun-19 22:29N 40°56' E 001°53'5 9.9
2017-Jun-19 21:59N 40°52' E 001°49'5 9.8
2017-Jun-19 21:30N 40°48' E 001°46'5 9.9
2017-Jun-19 21:00N 40°43' E 001°42'5 9.8
2017-Jun-19 20:30N 40°39' E 001°39'5 9.6
2017-Jun-19 20:00N 40°35' E 001°36'5 9.6
2017-Jun-19 19:29N 40°31' E 001°32'5 9.8
2017-Jun-19 19:00N 40°27' E 001°29'5 9.9
2017-Jun-19 18:29N 40°23' E 001°25'510.0
2017-Jun-19 18:00N 40°19' E 001°22'610.1
2017-Jun-19 17:27N 40°14' E 001°18'510.3
2017-Jun-19 16:59N 40°10' E 001°15'510.2
2017-Jun-19 16:30N 40°06' E 001°11'510.2
2017-Jun-19 15:59N 40°01' E 001°07'510.1
2017-Jun-19 15:30N 39°57' E 001°04'510.0
2017-Jun-19 15:00N 39°53' E 001°00'612.2
2017-Jun-19 14:29N 39°48' E 000°56'128 9.0
2017-Jun-19 00:15N 38°04' E 002°32'311.5
2017-Jun-18 23:58N 38°02' E 002°36'611.7
2017-Jun-18 23:30N 38°00' E 002°42'611.9
2017-Jun-18 23:00N 37°57' E 002°48'5411.9
2017-Jun-18 18:25N 37°31' E 003°49'  
2017-Jun-15 04:12N 36°44' E 005°11'0 0.0
2017-Jun-15 03:42N 36°44' E 005°11'0 0.1
2017-Jun-15 03:30N 36°44' E 005°11'  
Track history (hours):
 
Tides and Currents Weather Stations Pressure Air Temp Water Temp Dewpoint Dewpoint Depression Visibility Wind Speed Wind Dir Waves Ship Positions

Karin S

Last reported at 2017-Jun-25 02:00 UTC. Time now 2017-Jun-25 02:02 UTC.
Position N 36°57' W 000°13'.

Length 141 m; draft 8.6 m.

Type: Cargo ship. MMSI: 304871000.

Date/timePositionNaut miles runAvg speedWind from/ knotsBaromVisibWave heightAir tempDewpointWater temp
2017-Jun-25 02:00N 36°57' W 000°13'5 8.5
2017-Jun-25 01:28N 37°01' W 000°12'4 8.6
2017-Jun-25 01:00N 37°05' W 000°11'4 8.8
2017-Jun-25 00:30N 37°10' W 000°10'5 9.1
2017-Jun-25 00:00N 37°14' W 000°08'5 9.0
2017-Jun-24 23:30N 37°18' W 000°07'4 9.2
2017-Jun-24 23:00N 37°23' W 000°06'5 9.0
2017-Jun-24 22:28N 37°28' W 000°04'4 9.0
2017-Jun-24 22:00N 37°32' W 000°03'5 9.1
2017-Jun-24 21:30N 37°36' W 000°02'4 8.9
2017-Jun-24 21:00N 37°40' W 000°01'4 8.8
2017-Jun-24 20:30N 37°45' E 000°01'4 8.5
2017-Jun-24 19:59N 37°49' E 000°02'5 8.7
2017-Jun-24 19:27N 37°54' E 000°03'4 8.6
2017-Jun-24 18:59N 37°57' E 000°04'4 8.6
2017-Jun-24 18:30N 38°01' E 000°05'4 8.5
2017-Jun-24 18:00N 38°06' E 000°06'4 8.6
2017-Jun-24 17:30N 38°10' E 000°07'4 8.6
2017-Jun-24 17:00N 38°14' E 000°09'4 8.5
2017-Jun-24 16:30N 38°18' E 000°10'4 8.6
2017-Jun-24 16:00N 38°22' E 000°11'5 8.6
2017-Jun-24 15:29N 38°27' E 000°12'4 8.3
2017-Jun-24 14:59N 38°31' E 000°13'8 8.0
2017-Jun-24 14:00N 38°37' E 000°19'4 7.8
2017-Jun-24 13:30N 38°41' E 000°21'4 7.7
2017-Jun-24 13:00N 38°44' E 000°24'3 6.6
2017-Jun-24 12:30N 38°47' E 000°23'52 1.2
2017-Jun-22 16:22N 39°39' E 000°31'411.3
2017-Jun-22 15:59N 39°40' E 000°36'511.4
2017-Jun-22 15:30N 39°42' E 000°42'611.2
2017-Jun-22 15:00N 39°44' E 000°49'1110.8
2017-Jun-22 13:59N 39°52' E 000°60'611.5
2017-Jun-22 13:29N 39°57' E 001°04'511.4
2017-Jun-22 13:00N 40°01' E 001°07'611.3
2017-Jun-22 12:30N 40°06' E 001°11'611.2
2017-Jun-22 12:00N 40°11' E 001°15'611.3
2017-Jun-22 11:30N 40°16' E 001°19'611.7
2017-Jun-22 11:00N 40°20' E 001°23'611.9
2017-Jun-22 10:30N 40°26' E 001°28'712.1
2017-Jun-22 09:57N 40°31' E 001°32'612.2
2017-Jun-22 09:29N 40°36' E 001°36'612.3
2017-Jun-22 08:58N 40°41' E 001°41'612.2
2017-Jun-22 08:30N 40°46' E 001°44'612.4
2017-Jun-22 08:00N 40°52' E 001°48'612.3
2017-Jun-22 07:30N 40°57' E 001°53'612.1
2017-Jun-22 07:00N 41°02' E 001°58'612.3
2017-Jun-22 06:30N 41°07' E 002°02'612.0
2017-Jun-22 06:00N 41°12' E 002°06'611.6
2017-Jun-22 05:30N 41°17' E 002°11'2 4.4
2017-Jun-22 05:00N 41°19' E 002°09'0 0.2
2017-Jun-22 04:30N 41°19' E 002°09'0 0.1
2017-Jun-22 04:00N 41°19' E 002°09'0 0.0
2017-Jun-22 03:30N 41°19' E 002°09'0 0.0
2017-Jun-22 02:58N 41°19' E 002°09'0 0.1
2017-Jun-22 02:30N 41°19' E 002°09'0 0.1
2017-Jun-22 02:00N 41°19' E 002°09'0 0.0
2017-Jun-22 01:28N 41°19' E 002°09'0 0.0
2017-Jun-22 01:00N 41°19' E 002°09'0 0.0
2017-Jun-22 00:30N 41°19' E 002°09'0 0.0
2017-Jun-21 23:49N 41°19' E 002°09'0 0.0
2017-Jun-21 23:31N 41°19' E 002°09'0 0.0
2017-Jun-21 22:57N 41°19' E 002°09'0 0.0
2017-Jun-21 22:13N 41°19' E 002°09'0 0.0
2017-Jun-21 21:45N 41°19' E 002°09'0 0.0
2017-Jun-21 21:25N 41°19' E 002°09'0 0.0
2017-Jun-21 20:43N 41°19' E 002°09'0 0.0
2017-Jun-21 20:25N 41°19' E 002°09'0 0.0
2017-Jun-21 19:49N 41°19' E 002°09'0 0.0
2017-Jun-21 19:16N 41°19' E 002°09'0 0.0
2017-Jun-21 19:00N 41°19' E 002°09'0 0.0
2017-Jun-21 18:31N 41°19' E 002°09'0 0.2
2017-Jun-21 18:00N 41°19' E 002°09'0 0.2
2017-Jun-21 17:30N 41°19' E 002°09'0 0.0
2017-Jun-21 17:00N 41°19' E 002°09'0 0.1
2017-Jun-21 16:21N 41°19' E 002°09'0 0.1
2017-Jun-21 15:59N 41°19' E 002°09'0 0.0
2017-Jun-21 14:14N 41°19' E 002°09'0 0.5
2017-Jun-21 13:30N 41°19' E 002°09'2 3.1
2017-Jun-21 13:00N 41°18' E 002°11'2 3.3
2017-Jun-21 12:18N 41°21' E 002°11'0 0.1
2017-Jun-21 12:00N 41°21' E 002°11'0 0.0
2017-Jun-21 11:30N 41°21' E 002°11'0 0.0
2017-Jun-21 10:54N 41°21' E 002°11'0 0.0
2017-Jun-21 10:24N 41°21' E 002°11'0 0.0
2017-Jun-21 07:42N 41°21' E 002°11'0 0.0
2017-Jun-21 05:48N 41°21' E 002°11'0 0.0
2017-Jun-21 02:42N 41°21' E 002°11'0 0.0
2017-Jun-21 02:30N 41°21' E 002°11'0 0.0
2017-Jun-21 02:00N 41°21' E 002°12'0 0.0
2017-Jun-21 00:30N 41°21' E 002°12'0 0.0
2017-Jun-20 20:12N 41°21' E 002°11'0 0.0
2017-Jun-20 19:48N 41°21' E 002°12'0 0.0
2017-Jun-20 19:30N 41°21' E 002°12'0 0.0
2017-Jun-20 18:54N 41°21' E 002°11'0 0.0
2017-Jun-20 18:06N 41°21' E 002°12'0 0.0
2017-Jun-20 17:36N 41°21' E 002°11'0 0.0
2017-Jun-20 17:30N 41°21' E 002°11'0 0.0
2017-Jun-20 16:54N 41°21' E 002°11'0 0.0
2017-Jun-20 16:27N 41°21' E 002°11'0 0.0
2017-Jun-20 15:42N 41°21' E 002°11'0 0.0
2017-Jun-20 15:27N 41°21' E 002°11'0 0.0
2017-Jun-20 11:30N 41°21' E 002°11'0 0.0
2017-Jun-20 03:27N 41°20' E 002°11'0 0.1
2017-Jun-20 02:45N 41°20' E 002°11'0 0.1
2017-Jun-20 02:21N 41°20' E 002°11'0 0.2
2017-Jun-20 01:58N 41°20' E 002°11'1 2.2
2017-Jun-20 01:30N 41°20' E 002°12'4 8.2
2017-Jun-20 01:00N 41°16' E 002°11'8 9.7
2017-Jun-20 00:09N 41°09' E 002°05'9 9.6
2017-Jun-19 23:15N 41°02' E 001°58'2 9.8
2017-Jun-19 23:00N 40°60' E 001°56'5 9.7
2017-Jun-19 22:29N 40°56' E 001°53'5 9.9
2017-Jun-19 21:59N 40°52' E 001°49'5 9.8
2017-Jun-19 21:30N 40°48' E 001°46'5 9.9
2017-Jun-19 21:00N 40°43' E 001°42'5 9.8
2017-Jun-19 20:30N 40°39' E 001°39'5 9.6
2017-Jun-19 20:00N 40°35' E 001°36'5 9.6
2017-Jun-19 19:29N 40°31' E 001°32'5 9.8
2017-Jun-19 19:00N 40°27' E 001°29'5 9.9
2017-Jun-19 18:29N 40°23' E 001°25'510.0
2017-Jun-19 18:00N 40°19' E 001°22'610.1
2017-Jun-19 17:27N 40°14' E 001°18'510.3
2017-Jun-19 16:59N 40°10' E 001°15'510.2
2017-Jun-19 16:30N 40°06' E 001°11'510.2
2017-Jun-19 15:59N 40°01' E 001°07'510.1
2017-Jun-19 15:30N 39°57' E 001°04'510.0
2017-Jun-19 15:00N 39°53' E 001°00'612.2
2017-Jun-19 14:29N 39°48' E 000°56'128 9.0
2017-Jun-19 00:15N 38°04' E 002°32'311.5
2017-Jun-18 23:58N 38°02' E 002°36'611.7
2017-Jun-18 23:30N 38°00' E 002°42'611.9
2017-Jun-18 23:00N 37°57' E 002°48'5411.9
2017-Jun-18 18:25N 37°31' E 003°49'  
2017-Jun-15 04:12N 36°44' E 005°11'0 0.0
2017-Jun-15 03:42N 36°44' E 005°11'0 0.1
2017-Jun-15 03:30N 36°44' E 005°11'  

Dump ship's entire track history